Time,TemperatureF,DewpointF,PressureIn,WindDirection,WindDirectionDegrees,WindSpeedMPH,WindSpeedGustMPH,Humidity,HourlyPrecipIn,Conditions,Clouds,dailyrainin,SolarRadiationWatts/m^2,SoftwareType,DateUTC
2013-10-13 00:01:00,59.4,57.6,30.12,East,80,0.0,0.0,94,0.00,,,0.00,0,HR-IXPWINDi_r2_v1.2.,2013-10-13 04:01:00,
2013-10-13 00:06:00,59.3,57.8,30.12,East,80,0.0,2.0,95,0.00,,,0.00,0,HR-IXPWINDi_r2_v1.2.,2013-10-13 04:06:00,
2013-10-13 00:11:00,59.4,57.9,30.12,East,80,0.0,2.0,95,0.00,,,0.00,0,HR-IXPWINDi_r2_v1.2.,2013-10-13 04:11:00,
2013-10-13 00:16:00,59.5,58.0,30.12,East,80,0.0,1.0,95,0.00,,,0.00,0,HR-IXPWINDi_r2_v1.2.,2013-10-13 04:16:00,
2013-10-13 00:21:00,59.6,58.1,30.12,East,80,0.0,0.0,95,0.00,,,0.00,0,HR-IXPWINDi_r2_v1.2.,2013-10-13 04:21:00,
2013-10-13 00:27:00,59.7,58.2,30.12,East,80,0.0,0.0,95,0.00,,,0.00,0,HR-IXPWINDi_r2_v1.2.,2013-10-13 04:27:00,
2013-10-13 00:32:00,59.8,58.3,30.12,East,80,0.0,0.0,95,0.00,,,0.00,0,HR-IXPWINDi_r2_v1.2.,2013-10-13 04:32:00,
2013-10-13 00:37:00,59.8,58.3,30.12,East,80,0.0,0.0,95,0.00,,,0.00,0,HR-IXPWINDi_r2_v1.2.,2013-10-13 04:37:00,
2013-10-13 00:42:00,59.8,58.3,30.12,East,80,0.0,0.0,95,0.00,,,0.00,0,HR-IXPWINDi_r2_v1.2.,2013-10-13 04:42:00,
2013-10-13 00:47:00,59.9,58.4,30.12,East,80,0.0,0.0,95,0.00,,,0.00,0,HR-IXPWINDi_r2_v1.2.,2013-10-13 04:47:00,
2013-10-13 00:52:00,59.7,58.2,30.13,East,80,0.0,0.0,95,0.00,,,0.00,0,HR-IXPWINDi_r2_v1.2.,2013-10-13 04:52:00,
2013-10-13 00:57:00,59.5,58.0,30.13,East,80,0.0,0.0,95,0.00,,,0.00,0,HR-IXPWINDi_r2_v1.2.,2013-10-13 04:57:00,
2013-10-13 01:02:00,59.7,58.2,30.13,East,80,0.0,0.0,95,0.00,,,0.00,0,HR-IXPWINDi_r2_v1.2.,2013-10-13 05:02:00,
2013-10-13 01:08:00,59.8,58.3,30.13,East,80,0.0,0.0,95,0.00,,,0.00,0,HR-IXPWINDi_r2_v1.2.,2013-10-13 05:08:00,
2013-10-13 01:13:00,59.7,58.2,30.12,East,80,0.0,0.0,95,0.00,,,0.00,0,HR-IXPWINDi_r2_v1.2.,2013-10-13 05:13:00,
2013-10-13 01:18:00,59.6,58.1,30.12,East,80,0.0,0.0,95,0.00,,,0.00,0,HR-IXPWINDi_r2_v1.2.,2013-10-13 05:18:00,
2013-10-13 01:23:00,59.5,58.0,30.13,East,80,0.0,0.0,95,0.00,,,0.00,0,HR-IXPWINDi_r2_v1.2.,2013-10-13 05:23:00,
2013-10-13 01:29:00,59.5,58.0,30.13,East,80,0.0,0.0,95,0.00,,,0.00,0,HR-IXPWINDi_r2_v1.2.,2013-10-13 05:29:00,
2013-10-13 01:34:00,59.6,58.1,30.13,East,80,0.0,1.0,95,0.00,,,0.00,0,HR-IXPWINDi_r2_v1.2.,2013-10-13 05:34:00,
2013-10-13 01:39:00,59.5,58.0,30.13,East,80,0.0,1.0,95,0.00,,,0.00,0,HR-IXPWINDi_r2_v1.2.,2013-10-13 05:39:00,
2013-10-13 01:44:00,59.6,58.1,30.13,East,80,0.0,0.0,95,0.00,,,0.00,0,HR-IXPWINDi_r2_v1.2.,2013-10-13 05:44:00,
2013-10-13 01:49:00,59.6,58.1,30.14,East,80,0.0,0.0,95,0.00,,,0.00,0,HR-IXPWINDi_r2_v1.2.,2013-10-13 05:49:00,
2013-10-13 01:54:00,59.7,58.2,30.14,East,80,0.0,0.0,95,0.00,,,0.00,0,HR-IXPWINDi_r2_v1.2.,2013-10-13 05:54:00,
2013-10-13 02:00:00,59.9,58.4,30.14,East,80,0.0,0.0,95,0.00,,,0.00,0,HR-IXPWINDi_r2_v1.2.,2013-10-13 06:00:00,
2013-10-13 02:05:00,59.8,58.3,30.14,East,80,0.0,0.0,95,0.00,,,0.00,0,HR-IXPWINDi_r2_v1.2.,2013-10-13 06:05:00,
2013-10-13 02:10:00,59.8,58.3,30.14,East,80,0.0,0.0,95,0.00,,,0.00,0,HR-IXPWINDi_r2_v1.2.,2013-10-13 06:10:00,
2013-10-13 02:15:00,59.9,58.4,30.13,East,80,0.0,0.0,95,0.00,,,0.00,0,HR-IXPWINDi_r2_v1.2.,2013-10-13 06:15:00,
2013-10-13 02:20:00,59.9,58.4,30.13,East,80,0.0,0.0,95,0.00,,,0.00,0,HR-IXPWINDi_r2_v1.2.,2013-10-13 06:20:00,
2013-10-13 02:25:00,59.6,58.1,30.13,East,80,0.0,0.0,95,0.00,,,0.00,0,HR-IXPWINDi_r2_v1.2.,2013-10-13 06:25:00,
2013-10-13 02:30:00,59.6,58.1,30.13,East,80,0.0,0.0,95,0.00,,,0.00,0,HR-IXPWINDi_r2_v1.2.,2013-10-13 06:30:00,
2013-10-13 02:36:00,59.4,57.9,30.13,East,80,0.0,0.0,95,0.00,,,0.00,0,HR-IXPWINDi_r2_v1.2.,2013-10-13 06:36:00,
2013-10-13 02:41:00,59.3,58.1,30.13,East,80,0.0,0.0,96,0.00,,,0.00,0,HR-IXPWINDi_r2_v1.2.,2013-10-13 06:41:00,
2013-10-13 02:46:00,59.1,57.9,30.13,East,80,0.0,0.0,96,0.00,,,0.00,0,HR-IXPWINDi_r2_v1.2.,2013-10-13 06:46:00,
2013-10-13 02:51:00,59.0,57.8,30.13,East,80,0.0,0.0,96,0.00,,,0.00,0,HR-IXPWINDi_r2_v1.2.,2013-10-13 06:51:00,
2013-10-13 02:57:00,58.9,57.7,30.12,East,80,0.0,0.0,96,0.00,,,0.00,0,HR-IXPWINDi_r2_v1.2.,2013-10-13 06:57:00,
2013-10-13 03:02:00,58.8,57.6,30.13,East,80,0.0,0.0,96,0.00,,,0.00,0,HR-IXPWINDi_r2_v1.2.,2013-10-13 07:02:00,
2013-10-13 03:07:00,58.7,57.5,30.13,East,80,0.0,0.0,96,0.00,,,0.00,0,HR-IXPWINDi_r2_v1.2.,2013-10-13 07:07:00,
2013-10-13 03:12:00,58.3,57.1,30.12,East,80,2.0,3.0,96,0.00,,,0.00,0,HR-IXPWINDi_r2_v1.2.,2013-10-13 07:12:00,
2013-10-13 03:17:00,58.1,56.9,30.13,East,80,2.0,3.0,96,0.00,,,0.00,0,HR-IXPWINDi_r2_v1.2.,2013-10-13 07:17:00,
2013-10-13 03:22:00,57.9,56.7,30.13,East,80,0.0,3.0,96,0.00,,,0.00,0,HR-IXPWINDi_r2_v1.2.,2013-10-13 07:22:00,
2013-10-13 03:27:00,57.8,56.6,30.12,East,80,0.0,3.0,96,0.00,,,0.00,0,HR-IXPWINDi_r2_v1.2.,2013-10-13 07:27:00,
2013-10-13 03:32:00,57.6,56.4,30.13,East,80,0.0,1.0,96,0.00,,,0.00,0,HR-IXPWINDi_r2_v1.2.,2013-10-13 07:32:00,
2013-10-13 03:38:00,57.6,56.4,30.13,East,80,0.0,0.0,96,0.00,,,0.00,0,HR-IXPWINDi_r2_v1.2.,2013-10-13 07:38:00,
2013-10-13 03:43:00,57.5,56.3,30.13,East,80,0.0,0.0,96,0.00,,,0.00,0,HR-IXPWINDi_r2_v1.2.,2013-10-13 07:43:00,
2013-10-13 03:48:00,57.5,56.3,30.13,East,80,0.0,0.0,96,0.00,,,0.00,0,HR-IXPWINDi_r2_v1.2.,2013-10-13 07:48:00,
2013-10-13 03:53:00,57.3,56.1,30.13,East,80,0.0,0.0,96,0.00,,,0.00,0,HR-IXPWINDi_r2_v1.2.,2013-10-13 07:53:00,
2013-10-13 03:58:00,57.2,56.0,30.13,East,80,0.0,0.0,96,0.00,,,0.00,0,HR-IXPWINDi_r2_v1.2.,2013-10-13 07:58:00,
2013-10-13 04:03:00,57.1,55.9,30.13,East,80,0.0,0.0,96,0.00,,,0.00,0,HR-IXPWINDi_r2_v1.2.,2013-10-13 08:03:00,
2013-10-13 04:09:00,57.0,55.8,30.13,East,80,0.0,0.0,96,0.00,,,0.00,0,HR-IXPWINDi_r2_v1.2.,2013-10-13 08:09:00,
2013-10-13 04:14:00,57.0,55.8,30.13,East,80,0.0,0.0,96,0.00,,,0.00,0,HR-IXPWINDi_r2_v1.2.,2013-10-13 08:14:00,
2013-10-13 04:19:00,57.0,55.8,30.13,East,80,0.0,0.0,96,0.00,,,0.00,0,HR-IXPWINDi_r2_v1.2.,2013-10-13 08:19:00,
2013-10-13 04:24:00,56.9,55.7,30.13,East,80,0.0,0.0,96,0.00,,,0.00,0,HR-IXPWINDi_r2_v1.2.,2013-10-13 08:24:00,
2013-10-13 04:30:00,56.8,55.6,30.13,East,80,0.0,0.0,96,0.00,,,0.00,0,HR-IXPWINDi_r2_v1.2.,2013-10-13 08:30:00,
2013-10-13 04:35:00,56.9,56.0,30.13,East,80,0.0,0.0,97,0.00,,,0.00,0,HR-IXPWINDi_r2_v1.2.,2013-10-13 08:35:00,
2013-10-13 04:40:00,57.0,56.1,30.13,East,80,0.0,0.0,97,0.00,,,0.00,0,HR-IXPWINDi_r2_v1.2.,2013-10-13 08:40:00,
2013-10-13 04:45:00,56.8,55.9,30.13,East,80,0.0,0.0,97,0.00,,,0.00,0,HR-IXPWINDi_r2_v1.2.,2013-10-13 08:45:00,
2013-10-13 04:50:00,56.9,56.0,30.13,East,80,0.0,0.0,97,0.00,,,0.00,0,HR-IXPWINDi_r2_v1.2.,2013-10-13 08:50:00,
2013-10-13 04:56:00,57.2,56.3,30.13,East,80,0.0,0.0,97,0.00,,,0.00,0,HR-IXPWINDi_r2_v1.2.,2013-10-13 08:56:00,
2013-10-13 05:01:00,57.2,56.3,30.13,East,80,0.0,0.0,97,0.00,,,0.00,0,HR-IXPWINDi_r2_v1.2.,2013-10-13 09:01:00,
2013-10-13 05:06:00,57.1,56.2,30.13,East,80,0.0,0.0,97,0.00,,,0.00,0,HR-IXPWINDi_r2_v1.2.,2013-10-13 09:06:00,
2013-10-13 05:11:00,57.1,56.2,30.13,East,80,0.0,0.0,97,0.00,,,0.00,0,HR-IXPWINDi_r2_v1.2.,2013-10-13 09:11:00,
2013-10-13 05:17:00,57.2,56.3,30.13,East,80,0.0,0.0,97,0.00,,,0.00,0,HR-IXPWINDi_r2_v1.2.,2013-10-13 09:17:00,
2013-10-13 05:22:00,57.2,56.3,30.13,East,80,0.0,0.0,97,0.00,,,0.00,0,HR-IXPWINDi_r2_v1.2.,2013-10-13 09:22:00,
2013-10-13 05:27:00,57.4,56.5,30.14,East,80,0.0,0.0,97,0.00,,,0.00,0,HR-IXPWINDi_r2_v1.2.,2013-10-13 09:27:00,
2013-10-13 05:32:00,57.6,56.7,30.14,East,80,0.0,0.0,97,0.00,,,0.00,0,HR-IXPWINDi_r2_v1.2.,2013-10-13 09:32:00,
2013-10-13 05:37:00,57.6,56.7,30.14,East,80,0.0,0.0,97,0.00,,,0.00,0,HR-IXPWINDi_r2_v1.2.,2013-10-13 09:37:00,
2013-10-13 05:42:00,57.7,56.8,30.14,East,80,0.0,0.0,97,0.00,,,0.00,0,HR-IXPWINDi_r2_v1.2.,2013-10-13 09:42:00,
2013-10-13 05:47:00,57.7,56.8,30.14,East,80,0.0,0.0,97,0.00,,,0.00,0,HR-IXPWINDi_r2_v1.2.,2013-10-13 09:47:00,
2013-10-13 05:53:00,57.8,56.9,30.14,East,80,0.0,0.0,97,0.00,,,0.00,0,HR-IXPWINDi_r2_v1.2.,2013-10-13 09:53:00,
2013-10-13 05:58:00,57.7,56.8,30.14,East,80,0.0,0.0,97,0.00,,,0.00,0,HR-IXPWINDi_r2_v1.2.,2013-10-13 09:58:00,
2013-10-13 06:03:00,57.8,56.9,30.14,East,80,0.0,0.0,97,0.00,,,0.00,0,HR-IXPWINDi_r2_v1.2.,2013-10-13 10:03:00,
2013-10-13 06:08:00,57.9,57.0,30.14,East,80,0.0,0.0,97,0.00,,,0.00,0,HR-IXPWINDi_r2_v1.2.,2013-10-13 10:08:00,
2013-10-13 06:13:00,57.9,57.0,30.15,East,80,0.0,0.0,97,0.00,,,0.00,0,HR-IXPWINDi_r2_v1.2.,2013-10-13 10:13:00,
2013-10-13 06:19:00,57.8,56.9,30.15,East,80,0.0,0.0,97,0.00,,,0.00,0,HR-IXPWINDi_r2_v1.2.,2013-10-13 10:19:00,
2013-10-13 06:24:00,57.8,56.9,30.15,East,80,0.0,0.0,97,0.00,,,0.00,0,HR-IXPWINDi_r2_v1.2.,2013-10-13 10:24:00,
2013-10-13 06:29:00,58.0,57.1,30.15,East,80,0.0,0.0,97,0.00,,,0.00,0,HR-IXPWINDi_r2_v1.2.,2013-10-13 10:29:00,
2013-10-13 06:34:00,57.9,57.0,30.15,East,80,0.0,0.0,97,0.00,,,0.00,0,HR-IXPWINDi_r2_v1.2.,2013-10-13 10:34:00,
2013-10-13 06:39:00,57.9,57.0,30.15,East,80,0.0,0.0,97,0.00,,,0.00,0,HR-IXPWINDi_r2_v1.2.,2013-10-13 10:39:00,
2013-10-13 06:44:00,57.9,57.0,30.16,East,80,0.0,0.0,97,0.00,,,0.00,0,HR-IXPWINDi_r2_v1.2.,2013-10-13 10:44:00,
2013-10-13 06:49:00,58.0,57.1,30.15,East,80,0.0,0.0,97,0.00,,,0.00,0,HR-IXPWINDi_r2_v1.2.,2013-10-13 10:49:00,
2013-10-13 06:54:00,57.9,57.0,30.15,East,80,0.0,0.0,97,0.00,,,0.00,0,HR-IXPWINDi_r2_v1.2.,2013-10-13 10:54:00,
2013-10-13 07:00:00,57.8,56.9,30.16,East,80,0.0,0.0,97,0.00,,,0.00,0,HR-IXPWINDi_r2_v1.2.,2013-10-13 11:00:00,
2013-10-13 07:05:00,57.6,56.7,30.15,East,80,0.0,0.0,97,0.00,,,0.00,0,HR-IXPWINDi_r2_v1.2.,2013-10-13 11:05:00,
2013-10-13 07:10:00,57.4,56.5,30.16,East,80,0.0,0.0,97,0.00,,,0.00,0,HR-IXPWINDi_r2_v1.2.,2013-10-13 11:10:00,
2013-10-13 07:15:00,57.2,56.3,30.16,East,80,0.0,0.0,97,0.00,,,0.00,0,HR-IXPWINDi_r2_v1.2.,2013-10-13 11:15:00,
2013-10-13 07:20:00,57.2,56.3,30.16,East,80,0.0,0.0,97,0.00,,,0.00,0,HR-IXPWINDi_r2_v1.2.,2013-10-13 11:20:00,
2013-10-13 07:26:00,57.1,56.2,30.15,East,80,0.0,0.0,97,0.00,,,0.00,0,HR-IXPWINDi_r2_v1.2.,2013-10-13 11:26:00,
2013-10-13 07:31:00,57.0,56.1,30.16,East,80,0.0,0.0,97,0.00,,,0.00,0,HR-IXPWINDi_r2_v1.2.,2013-10-13 11:31:00,
2013-10-13 07:36:00,57.1,56.2,30.16,East,80,0.0,0.0,97,0.00,,,0.00,0,HR-IXPWINDi_r2_v1.2.,2013-10-13 11:36:00,
2013-10-13 07:41:00,57.3,56.4,30.16,East,80,0.0,0.0,97,0.00,,,0.00,5,HR-IXPWINDi_r2_v1.2.,2013-10-13 11:41:00,
2013-10-13 07:47:00,57.5,56.6,30.16,East,80,0.0,0.0,97,0.00,,,0.00,11,HR-IXPWINDi_r2_v1.2.,2013-10-13 11:47:00,
2013-10-13 07:52:00,57.4,56.5,30.16,East,80,0.0,0.0,97,0.00,,,0.00,16,HR-IXPWINDi_r2_v1.2.,2013-10-13 11:52:00,
2013-10-13 07:57:00,57.5,56.6,30.16,East,80,0.0,0.0,97,0.00,,,0.00,21,HR-IXPWINDi_r2_v1.2.,2013-10-13 11:57:00,
2013-10-13 08:02:00,57.7,56.8,30.16,East,80,0.0,0.0,97,0.00,,,0.00,26,HR-IXPWINDi_r2_v1.2.,2013-10-13 12:02:00,
2013-10-13 08:07:00,57.8,56.9,30.16,East,80,0.0,0.0,97,0.00,,,0.00,28,HR-IXPWINDi_r2_v1.2.,2013-10-13 12:07:00,
2013-10-13 08:12:00,57.9,57.0,30.16,East,80,0.0,0.0,97,0.00,,,0.00,33,HR-IXPWINDi_r2_v1.2.,2013-10-13 12:12:00,
2013-10-13 08:17:00,58.2,57.3,30.17,East,80,0.0,0.0,97,0.00,,,0.00,39,HR-IXPWINDi_r2_v1.2.,2013-10-13 12:17:00,
2013-10-13 08:22:00,58.4,57.5,30.17,East,80,0.0,0.0,97,0.00,,,0.00,49,HR-IXPWINDi_r2_v1.2.,2013-10-13 12:22:00,
2013-10-13 08:27:00,58.5,57.6,30.17,East,80,0.0,0.0,97,0.00,,,0.00,51,HR-IXPWINDi_r2_v1.2.,2013-10-13 12:27:00,
2013-10-13 08:32:00,58.4,57.5,30.17,East,80,0.0,0.0,97,0.00,,,0.00,74,HR-IXPWINDi_r2_v1.2.,2013-10-13 12:32:00,
2013-10-13 08:37:00,58.6,57.7,30.17,East,80,0.0,0.0,97,0.00,,,0.00,83,HR-IXPWINDi_r2_v1.2.,2013-10-13 12:37:00,
2013-10-13 08:43:00,59.1,58.2,30.17,East,80,0.0,0.0,97,0.00,,,0.00,95,HR-IXPWINDi_r2_v1.2.,2013-10-13 12:43:00,
2013-10-13 08:48:00,59.5,58.6,30.17,East,80,0.0,0.0,97,0.00,,,0.00,107,HR-IXPWINDi_r2_v1.2.,2013-10-13 12:48:00,
2013-10-13 08:53:00,60.1,58.9,30.17,East,80,0.0,0.0,96,0.00,,,0.00,125,HR-IXPWINDi_r2_v1.2.,2013-10-13 12:53:00,
2013-10-13 08:59:00,60.3,59.1,30.18,East,80,0.0,0.0,96,0.00,,,0.00,214,HR-IXPWINDi_r2_v1.2.,2013-10-13 12:59:00,
2013-10-13 09:04:00,60.5,59.3,30.18,East,80,0.0,0.0,96,0.00,,,0.00,229,HR-IXPWINDi_r2_v1.2.,2013-10-13 13:04:00,
2013-10-13 09:09:00,61.6,60.1,30.18,East,80,0.0,0.0,95,0.00,,,0.00,376,HR-IXPWINDi_r2_v1.2.,2013-10-13 13:09:00,
2013-10-13 09:14:00,62.7,60.9,30.18,East,83,0.0,0.0,94,0.00,,,0.00,388,HR-IXPWINDi_r2_v1.2.,2013-10-13 13:14:00,
2013-10-13 09:19:00,63.9,61.5,30.18,SSE,150,2.0,5.0,92,0.00,,,0.00,411,HR-IXPWINDi_r2_v1.2.,2013-10-13 13:19:00,
2013-10-13 09:24:00,64.5,61.4,30.18,South,179,4.0,7.0,90,0.00,,,0.00,394,HR-IXPWINDi_r2_v1.2.,2013-10-13 13:24:00,
2013-10-13 09:29:00,64.7,61.3,30.18,SSE,159,2.0,7.0,89,0.00,,,0.00,267,HR-IXPWINDi_r2_v1.2.,2013-10-13 13:29:00,
2013-10-13 09:35:00,65.0,61.0,30.18,South,173,5.0,7.0,87,0.00,,,0.00,403,HR-IXPWINDi_r2_v1.2.,2013-10-13 13:35:00,
2013-10-13 09:40:00,65.4,61.0,30.18,South,191,4.0,7.0,86,0.00,,,0.00,248,HR-IXPWINDi_r2_v1.2.,2013-10-13 13:40:00,
2013-10-13 09:45:00,65.6,60.9,30.18,SSW,201,2.0,8.0,85,0.00,,,0.00,250,HR-IXPWINDi_r2_v1.2.,2013-10-13 13:45:00,
2013-10-13 09:50:00,65.4,60.7,30.18,SSW,202,4.0,8.0,85,0.00,,,0.00,239,HR-IXPWINDi_r2_v1.2.,2013-10-13 13:50:00,
2013-10-13 09:55:00,65.9,61.2,30.18,SSW,200,0.0,5.0,85,0.00,,,0.00,239,HR-IXPWINDi_r2_v1.2.,2013-10-13 13:55:00,
2013-10-13 10:00:00,66.7,61.3,30.18,SSW,200,0.0,5.0,83,0.00,,,0.00,281,HR-IXPWINDi_r2_v1.2.,2013-10-13 14:00:00,
2013-10-13 10:05:00,66.3,60.6,30.18,SSW,200,0.0,2.0,82,0.00,,,0.00,172,HR-IXPWINDi_r2_v1.2.,2013-10-13 14:05:00,
2013-10-13 10:10:00,66.5,61.1,30.18,SSW,193,0.0,4.0,83,0.00,,,0.00,202,HR-IXPWINDi_r2_v1.2.,2013-10-13 14:10:00,
2013-10-13 10:15:00,66.1,61.1,30.18,SSW,193,0.0,4.0,84,0.00,,,0.00,188,HR-IXPWINDi_r2_v1.2.,2013-10-13 14:15:00,
2013-10-13 10:20:00,66.1,60.7,30.19,North,350,3.0,4.0,83,0.00,,,0.00,178,HR-IXPWINDi_r2_v1.2.,2013-10-13 14:20:00,
2013-10-13 10:25:00,66.6,61.2,30.19,North,351,0.0,4.0,83,0.00,,,0.00,221,HR-IXPWINDi_r2_v1.2.,2013-10-13 14:25:00,
2013-10-13 10:31:00,66.6,60.9,30.19,NW,324,1.0,4.0,82,0.00,,,0.00,290,HR-IXPWINDi_r2_v1.2.,2013-10-13 14:31:00,
2013-10-13 10:36:00,67.0,61.6,30.19,SSW,204,3.0,5.0,83,0.00,,,0.00,281,HR-IXPWINDi_r2_v1.2.,2013-10-13 14:36:00,
2013-10-13 10:41:00,67.5,61.0,30.18,SSW,204,0.0,5.0,80,0.00,,,0.00,285,HR-IXPWINDi_r2_v1.2.,2013-10-13 14:41:00,
2013-10-13 10:46:00,68.4,61.6,30.19,North,350,3.0,4.0,79,0.00,,,0.00,490,HR-IXPWINDi_r2_v1.2.,2013-10-13 14:46:00,
2013-10-13 10:51:00,69.0,61.8,30.18,NNW,347,0.0,4.0,78,0.00,,,0.00,336,HR-IXPWINDi_r2_v1.2.,2013-10-13 14:51:00,
2013-10-13 10:56:00,69.1,61.9,30.19,SW,234,2.0,4.0,78,0.00,,,0.00,401,HR-IXPWINDi_r2_v1.2.,2013-10-13 14:56:00,
2013-10-13 11:02:00,68.8,61.2,30.19,SSW,196,0.0,7.0,77,0.00,,,0.00,359,HR-IXPWINDi_r2_v1.2.,2013-10-13 15:02:00,
2013-10-13 11:07:00,68.4,61.2,30.18,South,175,1.0,7.0,78,0.00,,,0.00,292,HR-IXPWINDi_r2_v1.2.,2013-10-13 15:07:00,
2013-10-13 11:12:00,68.6,61.4,30.18,WNW,303,3.0,6.0,78,0.00,,,0.00,202,HR-IXPWINDi_r2_v1.2.,2013-10-13 15:12:00,
2013-10-13 11:17:00,68.4,60.5,30.18,NNW,345,0.0,6.0,76,0.00,,,0.00,237,HR-IXPWINDi_r2_v1.2.,2013-10-13 15:17:00,
2013-10-13 11:22:00,68.4,60.5,30.18,NNW,327,0.0,4.0,76,0.00,,,0.00,243,HR-IXPWINDi_r2_v1.2.,2013-10-13 15:22:00,
2013-10-13 11:27:00,68.8,60.9,30.19,SE,138,5.0,6.0,76,0.00,,,0.00,218,HR-IXPWINDi_r2_v1.2.,2013-10-13 15:27:00,
2013-10-13 11:32:00,68.4,60.5,30.19,SE,124,0.0,6.0,76,0.00,,,0.00,193,HR-IXPWINDi_r2_v1.2.,2013-10-13 15:32:00,
2013-10-13 11:38:00,68.9,61.0,30.19,SE,124,0.0,6.0,76,0.00,,,0.00,206,HR-IXPWINDi_r2_v1.2.,2013-10-13 15:38:00,
2013-10-13 11:43:00,69.1,61.2,30.18,SW,217,1.0,4.0,76,0.00,,,0.00,176,HR-IXPWINDi_r2_v1.2.,2013-10-13 15:43:00,
2013-10-13 11:48:00,68.7,61.5,30.19,SW,217,0.0,4.0,78,0.00,,,0.00,156,HR-IXPWINDi_r2_v1.2.,2013-10-13 15:48:00,
2013-10-13 11:53:00,68.5,61.3,30.18,SSW,198,3.0,6.0,78,0.00,,,0.00,167,HR-IXPWINDi_r2_v1.2.,2013-10-13 15:53:00,
2013-10-13 11:58:00,68.2,61.7,30.18,SSW,213,0.0,6.0,80,0.00,,,0.00,204,HR-IXPWINDi_r2_v1.2.,2013-10-13 15:58:00,
2013-10-13 12:03:00,68.3,61.5,30.18,North,360,3.0,5.0,79,0.00,,,0.00,221,HR-IXPWINDi_r2_v1.2.,2013-10-13 16:03:00,
2013-10-13 12:08:00,68.6,62.1,30.18,SSE,167,4.0,6.0,80,0.00,,,0.00,232,HR-IXPWINDi_r2_v1.2.,2013-10-13 16:08:00,
2013-10-13 12:14:00,68.5,61.7,30.18,West,260,0.0,6.0,79,0.00,,,0.00,250,HR-IXPWINDi_r2_v1.2.,2013-10-13 16:14:00,
2013-10-13 12:19:00,68.4,61.6,30.18,SSW,206,1.0,7.0,79,0.00,,,0.00,260,HR-IXPWINDi_r2_v1.2.,2013-10-13 16:19:00,
2013-10-13 12:24:00,68.7,62.2,30.18,SSW,204,0.0,7.0,80,0.00,,,0.00,230,HR-IXPWINDi_r2_v1.2.,2013-10-13 16:24:00,
2013-10-13 12:29:00,68.7,61.5,30.18,SSW,205,3.0,6.0,78,0.00,,,0.00,207,HR-IXPWINDi_r2_v1.2.,2013-10-13 16:29:00,
2013-10-13 12:35:00,68.8,62.3,30.18,SSW,205,0.0,5.0,80,0.00,,,0.00,165,HR-IXPWINDi_r2_v1.2.,2013-10-13 16:35:00,
2013-10-13 12:40:00,69.1,62.2,30.18,SSW,207,0.0,5.0,79,0.00,,,0.00,155,HR-IXPWINDi_r2_v1.2.,2013-10-13 16:40:00,
2013-10-13 12:45:00,69.2,62.3,30.18,SSW,207,4.0,4.0,79,0.00,,,0.00,151,HR-IXPWINDi_r2_v1.2.,2013-10-13 16:45:00,
2013-10-13 12:50:00,68.6,61.4,30.18,NNW,344,4.0,9.0,78,0.00,,,0.00,181,HR-IXPWINDi_r2_v1.2.,2013-10-13 16:50:00,
2013-10-13 12:55:00,68.4,61.6,30.18,NNW,344,4.0,9.0,79,0.00,,,0.00,195,HR-IXPWINDi_r2_v1.2.,2013-10-13 16:55:00,
2013-10-13 13:01:00,68.5,61.7,30.18,NNW,344,0.0,10.0,79,0.00,,,0.00,227,HR-IXPWINDi_r2_v1.2.,2013-10-13 17:01:00,
2013-10-13 13:06:00,69.0,61.8,30.18,NNW,348,7.0,10.0,78,0.00,,,0.00,243,HR-IXPWINDi_r2_v1.2.,2013-10-13 17:06:00,
2013-10-13 13:11:00,68.7,61.5,30.17,North,349,0.0,7.0,78,0.00,,,0.00,271,HR-IXPWINDi_r2_v1.2.,2013-10-13 17:11:00,
2013-10-13 13:16:00,69.4,62.2,30.17,NNE,19,0.0,7.0,78,0.00,,,0.00,301,HR-IXPWINDi_r2_v1.2.,2013-10-13 17:16:00,
2013-10-13 13:21:00,69.7,61.7,30.17,West,276,0.0,4.0,76,0.00,,,0.00,345,HR-IXPWINDi_r2_v1.2.,2013-10-13 17:21:00,
2013-10-13 13:27:00,70.3,62.3,30.17,North,355,0.0,3.0,76,0.00,,,0.00,366,HR-IXPWINDi_r2_v1.2.,2013-10-13 17:27:00,
2013-10-13 13:32:00,69.3,61.3,30.17,SSE,161,4.0,9.0,76,0.00,,,0.00,322,HR-IXPWINDi_r2_v1.2.,2013-10-13 17:32:00,
2013-10-13 13:37:00,69.6,61.6,30.16,NNE,14,0.0,9.0,76,0.00,,,0.00,202,HR-IXPWINDi_r2_v1.2.,2013-10-13 17:37:00,
2013-10-13 13:42:00,69.7,62.1,30.16,SSW,204,0.0,8.0,77,0.00,,,0.00,229,HR-IXPWINDi_r2_v1.2.,2013-10-13 17:42:00,
2013-10-13 13:47:00,69.9,62.7,30.16,SSW,209,2.0,7.0,78,0.00,,,0.00,297,HR-IXPWINDi_r2_v1.2.,2013-10-13 17:47:00,
2013-10-13 13:53:00,70.3,62.7,30.16,SW,234,2.0,4.0,77,0.00,,,0.00,332,HR-IXPWINDi_r2_v1.2.,2013-10-13 17:53:00,
2013-10-13 13:58:00,70.0,62.4,30.16,SW,231,0.0,7.0,77,0.00,,,0.00,246,HR-IXPWINDi_r2_v1.2.,2013-10-13 17:58:00,
2013-10-13 14:03:00,69.4,62.2,30.16,South,188,3.0,8.0,78,0.00,,,0.00,172,HR-IXPWINDi_r2_v1.2.,2013-10-13 18:03:00,
2013-10-13 14:08:00,69.4,62.2,30.16,SSW,193,2.0,8.0,78,0.00,,,0.00,165,HR-IXPWINDi_r2_v1.2.,2013-10-13 18:08:00,
2013-10-13 14:13:00,69.3,62.4,30.16,SSW,213,0.0,6.0,79,0.00,,,0.00,209,HR-IXPWINDi_r2_v1.2.,2013-10-13 18:13:00,
2013-10-13 14:19:00,69.1,61.9,30.16,North,360,3.0,7.0,78,0.00,,,0.00,236,HR-IXPWINDi_r2_v1.2.,2013-10-13 18:19:00,
2013-10-13 14:24:00,69.7,62.5,30.15,North,360,3.0,7.0,78,0.00,,,0.00,248,HR-IXPWINDi_r2_v1.2.,2013-10-13 18:24:00,
2013-10-13 14:29:00,69.8,62.2,30.15,North,355,4.0,6.0,77,0.00,,,0.00,241,HR-IXPWINDi_r2_v1.2.,2013-10-13 18:29:00,
2013-10-13 14:34:00,69.9,62.3,30.15,NNW,348,1.0,6.0,77,0.00,,,0.00,211,HR-IXPWINDi_r2_v1.2.,2013-10-13 18:34:00,
2013-10-13 14:39:00,70.2,62.6,30.15,South,173,0.0,6.0,77,0.00,,,0.00,250,HR-IXPWINDi_r2_v1.2.,2013-10-13 18:39:00,
2013-10-13 14:45:00,70.2,62.2,30.15,NNW,344,1.0,6.0,76,0.00,,,0.00,385,HR-IXPWINDi_r2_v1.2.,2013-10-13 18:45:00,
2013-10-13 14:50:00,70.7,62.3,30.14,SE,126,0.0,6.0,75,0.00,,,0.00,336,HR-IXPWINDi_r2_v1.2.,2013-10-13 18:50:00,
2013-10-13 14:55:00,71.2,63.2,30.14,South,171,2.0,6.0,76,0.00,,,0.00,311,HR-IXPWINDi_r2_v1.2.,2013-10-13 18:55:00,
2013-10-13 15:00:00,70.8,62.8,30.14,SW,218,1.0,7.0,76,0.00,,,0.00,246,HR-IXPWINDi_r2_v1.2.,2013-10-13 19:00:00,
2013-10-13 15:05:00,70.6,62.2,30.14,NNW,345,5.0,8.0,75,0.00,,,0.00,186,HR-IXPWINDi_r2_v1.2.,2013-10-13 19:05:00,
2013-10-13 15:10:00,69.8,61.5,30.14,North,355,0.0,8.0,75,0.00,,,0.00,186,HR-IXPWINDi_r2_v1.2.,2013-10-13 19:10:00,
2013-10-13 15:16:00,69.9,61.9,30.14,North,9,0.0,8.0,76,0.00,,,0.00,230,HR-IXPWINDi_r2_v1.2.,2013-10-13 19:16:00,
2013-10-13 15:21:00,70.0,62.0,30.14,NNW,345,0.0,6.0,76,0.00,,,0.00,248,HR-IXPWINDi_r2_v1.2.,2013-10-13 19:21:00,
2013-10-13 15:26:00,70.0,62.0,30.14,SSW,207,3.0,7.0,76,0.00,,,0.00,244,HR-IXPWINDi_r2_v1.2.,2013-10-13 19:26:00,
2013-10-13 15:31:00,70.3,63.1,30.14,South,169,2.0,7.0,78,0.00,,,0.00,230,HR-IXPWINDi_r2_v1.2.,2013-10-13 19:31:00,
2013-10-13 15:37:00,69.9,62.3,30.14,SSW,195,4.0,7.0,77,0.00,,,0.00,250,HR-IXPWINDi_r2_v1.2.,2013-10-13 19:37:00,
2013-10-13 15:42:00,70.1,62.5,30.14,SSW,196,3.0,7.0,77,0.00,,,0.00,265,HR-IXPWINDi_r2_v1.2.,2013-10-13 19:42:00,
2013-10-13 15:47:00,70.3,62.7,30.14,South,184,6.0,8.0,77,0.00,,,0.00,513,HR-IXPWINDi_r2_v1.2.,2013-10-13 19:47:00,
2013-10-13 15:52:00,70.6,63.0,30.14,SSW,200,7.0,8.0,77,0.00,,,0.00,193,HR-IXPWINDi_r2_v1.2.,2013-10-13 19:52:00,
2013-10-13 15:57:00,70.4,62.4,30.14,South,185,4.0,8.0,76,0.00,,,0.00,165,HR-IXPWINDi_r2_v1.2.,2013-10-13 19:57:00,
2013-10-13 16:03:00,70.2,62.6,30.14,SSW,197,0.0,8.0,77,0.00,,,0.00,144,HR-IXPWINDi_r2_v1.2.,2013-10-13 20:03:00,
2013-10-13 16:08:00,70.3,62.7,30.14,SSW,197,1.0,7.0,77,0.00,,,0.00,100,HR-IXPWINDi_r2_v1.2.,2013-10-13 20:08:00,
2013-10-13 16:13:00,70.2,62.2,30.14,South,182,0.0,6.0,76,0.00,,,0.00,90,HR-IXPWINDi_r2_v1.2.,2013-10-13 20:13:00,
2013-10-13 16:18:00,70.5,63.2,30.14,NNW,342,2.0,6.0,78,0.00,,,0.00,127,HR-IXPWINDi_r2_v1.2.,2013-10-13 20:18:00,
2013-10-13 16:23:00,70.1,62.5,30.14,North,350,2.0,6.0,77,0.00,,,0.00,137,HR-IXPWINDi_r2_v1.2.,2013-10-13 20:23:00,
2013-10-13 16:28:00,69.6,62.4,30.14,NNW,348,3.0,8.0,78,0.00,,,0.00,155,HR-IXPWINDi_r2_v1.2.,2013-10-13 20:28:00,
2013-10-13 16:33:00,69.7,62.8,30.14,North,350,0.0,8.0,79,0.00,,,0.00,171,HR-IXPWINDi_r2_v1.2.,2013-10-13 20:33:00,
2013-10-13 16:39:00,69.6,63.1,30.14,NNW,333,0.0,5.0,80,0.00,,,0.00,169,HR-IXPWINDi_r2_v1.2.,2013-10-13 20:39:00,
2013-10-13 16:44:00,69.7,62.5,30.14,North,9,0.0,4.0,78,0.00,,,0.00,178,HR-IXPWINDi_r2_v1.2.,2013-10-13 20:44:00,
2013-10-13 16:49:00,70.3,63.1,30.14,North,9,0.0,4.0,78,0.00,,,0.00,176,HR-IXPWINDi_r2_v1.2.,2013-10-13 20:49:00,
2013-10-13 16:54:00,70.6,62.6,30.14,NNE,20,0.0,1.0,76,0.00,,,0.00,137,HR-IXPWINDi_r2_v1.2.,2013-10-13 20:54:00,
2013-10-13 16:59:00,69.8,62.6,30.14,SSW,194,1.0,4.0,78,0.00,,,0.00,113,HR-IXPWINDi_r2_v1.2.,2013-10-13 20:59:00,
2013-10-13 17:05:00,69.5,62.6,30.14,SSW,204,1.0,4.0,79,0.00,,,0.00,74,HR-IXPWINDi_r2_v1.2.,2013-10-13 21:05:00,
2013-10-13 17:10:00,70.0,63.5,30.14,NNE,27,5.0,6.0,80,0.00,,,0.00,39,HR-IXPWINDi_r2_v1.2.,2013-10-13 21:10:00,
2013-10-13 17:15:00,68.6,62.1,30.14,SE,138,0.0,8.0,80,0.00,,,0.00,19,HR-IXPWINDi_r2_v1.2.,2013-10-13 21:15:00,
2013-10-13 17:20:00,67.4,62.0,30.14,NNW,343,3.0,8.0,83,0.00,,,0.00,18,HR-IXPWINDi_r2_v1.2.,2013-10-13 21:20:00,
2013-10-13 17:25:00,66.6,62.2,30.14,NNW,343,0.0,4.0,86,0.00,,,0.00,18,HR-IXPWINDi_r2_v1.2.,2013-10-13 21:25:00,
2013-10-13 17:30:00,66.7,63.0,30.14,NNW,343,0.0,4.0,88,0.00,,,0.00,19,HR-IXPWINDi_r2_v1.2.,2013-10-13 21:30:00,
2013-10-13 17:36:00,66.6,62.9,30.15,NNW,343,0.0,1.0,88,0.00,,,0.00,18,HR-IXPWINDi_r2_v1.2.,2013-10-13 21:36:00,
2013-10-13 17:41:00,65.8,62.7,30.14,NNW,343,0.0,1.0,90,0.00,,,0.00,21,HR-IXPWINDi_r2_v1.2.,2013-10-13 21:41:00,
2013-10-13 17:46:00,65.6,62.8,30.14,NNW,343,0.0,1.0,91,0.00,,,0.00,23,HR-IXPWINDi_r2_v1.2.,2013-10-13 21:46:00,
2013-10-13 17:51:00,65.5,63.0,30.15,NNW,343,0.0,1.0,92,0.00,,,0.00,19,HR-IXPWINDi_r2_v1.2.,2013-10-13 21:51:00,
2013-10-13 17:56:00,65.1,62.7,30.15,NNE,24,0.0,1.0,92,0.00,,,0.00,19,HR-IXPWINDi_r2_v1.2.,2013-10-13 21:56:00,
2013-10-13 18:01:00,65.2,62.7,30.15,NNE,24,0.0,1.0,92,0.00,,,0.00,28,HR-IXPWINDi_r2_v1.2.,2013-10-13 22:01:00,
2013-10-13 18:06:00,64.9,62.1,30.15,NE,34,0.0,3.0,91,0.00,,,0.00,26,HR-IXPWINDi_r2_v1.2.,2013-10-13 22:06:00,
2013-10-13 18:12:00,64.8,62.4,30.15,NE,45,0.0,3.0,92,0.00,,,0.00,23,HR-IXPWINDi_r2_v1.2.,2013-10-13 22:12:00,
2013-10-13 18:17:00,64.7,61.9,30.15,NE,47,0.0,3.0,91,0.00,,,0.00,18,HR-IXPWINDi_r2_v1.2.,2013-10-13 22:17:00,
2013-10-13 18:22:00,64.9,62.5,30.15,NE,49,0.0,2.0,92,0.00,,,0.00,9,HR-IXPWINDi_r2_v1.2.,2013-10-13 22:22:00,
2013-10-13 18:27:00,64.7,61.9,30.16,East,88,0.0,3.0,91,0.00,,,0.00,7,HR-IXPWINDi_r2_v1.2.,2013-10-13 22:27:00,
2013-10-13 18:32:00,64.9,62.5,30.16,East,88,0.0,3.0,92,0.00,,,0.00,7,HR-IXPWINDi_r2_v1.2.,2013-10-13 22:32:00,
2013-10-13 18:38:00,64.7,62.3,30.16,East,88,0.0,1.0,92,0.00,,,0.00,7,HR-IXPWINDi_r2_v1.2.,2013-10-13 22:38:00,
2013-10-13 18:43:00,64.5,62.4,30.16,East,88,0.0,1.0,93,0.00,,,0.00,5,HR-IXPWINDi_r2_v1.2.,2013-10-13 22:43:00,
2013-10-13 18:48:00,64.3,62.2,30.16,East,88,0.0,0.0,93,0.00,,,0.00,0,HR-IXPWINDi_r2_v1.2.,2013-10-13 22:48:00,
2013-10-13 18:53:00,64.1,62.0,30.16,East,88,0.0,0.0,93,0.00,,,0.00,0,HR-IXPWINDi_r2_v1.2.,2013-10-13 22:53:00,
2013-10-13 18:59:00,63.9,61.8,30.16,East,88,0.0,1.0,93,0.00,,,0.00,0,HR-IXPWINDi_r2_v1.2.,2013-10-13 22:59:00,
2013-10-13 19:04:00,63.8,61.7,30.16,NE,49,0.0,4.0,93,0.00,,,0.00,0,HR-IXPWINDi_r2_v1.2.,2013-10-13 23:04:00,
2013-10-13 19:09:00,63.5,61.4,30.16,NE,49,0.0,4.0,93,0.00,,,0.00,0,HR-IXPWINDi_r2_v1.2.,2013-10-13 23:09:00,
2013-10-13 19:14:00,63.4,61.3,30.16,NE,49,2.0,3.0,93,0.00,,,0.00,0,HR-IXPWINDi_r2_v1.2.,2013-10-13 23:14:00,
2013-10-13 19:19:00,63.3,61.2,30.16,NE,49,0.0,3.0,93,0.00,,,0.00,0,HR-IXPWINDi_r2_v1.2.,2013-10-13 23:19:00,
2013-10-13 19:25:00,63.2,61.1,30.17,NE,49,0.0,3.0,93,0.00,,,0.00,0,HR-IXPWINDi_r2_v1.2.,2013-10-13 23:25:00,
2013-10-13 19:30:00,63.1,61.0,30.17,ESE,105,0.0,4.0,93,0.00,,,0.00,0,HR-IXPWINDi_r2_v1.2.,2013-10-13 23:30:00,
2013-10-13 19:35:00,63.0,60.9,30.17,ESE,105,2.0,4.0,93,0.00,,,0.00,0,HR-IXPWINDi_r2_v1.2.,2013-10-13 23:35:00,
2013-10-13 19:40:00,63.1,61.0,30.17,ESE,105,1.0,4.0,93,0.00,,,0.00,0,HR-IXPWINDi_r2_v1.2.,2013-10-13 23:40:00,
2013-10-13 19:45:00,63.2,61.1,30.17,ESE,105,0.0,1.0,93,0.00,,,0.00,0,HR-IXPWINDi_r2_v1.2.,2013-10-13 23:45:00,
2013-10-13 19:50:00,63.2,61.1,30.17,ESE,105,0.0,2.0,93,0.00,,,0.00,0,HR-IXPWINDi_r2_v1.2.,2013-10-13 23:50:00,
2013-10-13 19:56:00,63.0,60.9,30.17,East,101,0.0,4.0,93,0.00,,,0.00,0,HR-IXPWINDi_r2_v1.2.,2013-10-13 23:56:00,
2013-10-13 20:01:00,62.7,60.6,30.17,East,101,0.0,4.0,93,0.00,,,0.00,0,HR-IXPWINDi_r2_v1.2.,2013-10-14 00:01:00,
2013-10-13 20:06:00,62.6,60.8,30.17,East,101,0.0,0.0,94,0.00,,,0.00,0,HR-IXPWINDi_r2_v1.2.,2013-10-14 00:06:00,
2013-10-13 20:11:00,62.5,60.7,30.17,East,101,0.0,0.0,94,0.00,,,0.00,0,HR-IXPWINDi_r2_v1.2.,2013-10-14 00:11:00,
2013-10-13 20:16:00,62.4,60.6,30.17,East,101,0.0,0.0,94,0.00,,,0.00,0,HR-IXPWINDi_r2_v1.2.,2013-10-14 00:16:00,
2013-10-13 20:22:00,62.4,60.9,30.17,East,101,0.0,0.0,95,0.00,,,0.00,0,HR-IXPWINDi_r2_v1.2.,2013-10-14 00:22:00,
2013-10-13 20:27:00,62.2,60.7,30.18,East,101,0.0,0.0,95,0.00,,,0.00,0,HR-IXPWINDi_r2_v1.2.,2013-10-14 00:27:00,
2013-10-13 20:32:00,62.5,61.0,30.18,East,101,0.0,0.0,95,0.00,,,0.01,0,HR-IXPWINDi_r2_v1.2.,2013-10-14 00:32:00,
2013-10-13 20:37:00,62.6,60.8,30.18,East,101,0.0,0.0,94,0.00,,,0.01,0,HR-IXPWINDi_r2_v1.2.,2013-10-14 00:37:00,
2013-10-13 20:43:00,62.4,60.6,30.18,East,101,0.0,0.0,94,0.00,,,0.01,0,HR-IXPWINDi_r2_v1.2.,2013-10-14 00:43:00,
2013-10-13 20:48:00,62.2,60.7,30.18,East,101,0.0,0.0,95,0.00,,,0.01,0,HR-IXPWINDi_r2_v1.2.,2013-10-14 00:48:00,
2013-10-13 20:53:00,62.0,60.5,30.18,East,101,0.0,0.0,95,0.00,,,0.01,0,HR-IXPWINDi_r2_v1.2.,2013-10-14 00:53:00,
2013-10-13 20:58:00,62.1,60.6,30.18,East,101,0.0,0.0,95,0.00,,,0.01,0,HR-IXPWINDi_r2_v1.2.,2013-10-14 00:58:00,
2013-10-13 21:03:00,62.2,60.7,30.18,East,101,0.0,0.0,95,0.00,,,0.01,0,HR-IXPWINDi_r2_v1.2.,2013-10-14 01:03:00,
2013-10-13 21:09:00,62.2,60.7,30.19,East,101,0.0,0.0,95,0.00,,,0.01,0,HR-IXPWINDi_r2_v1.2.,2013-10-14 01:09:00,
2013-10-13 21:14:00,62.3,60.8,30.18,East,101,0.0,0.0,95,0.00,,,0.01,0,HR-IXPWINDi_r2_v1.2.,2013-10-14 01:14:00,
2013-10-13 21:19:00,62.3,60.8,30.18,East,101,0.0,0.0,95,0.00,,,0.01,0,HR-IXPWINDi_r2_v1.2.,2013-10-14 01:19:00,
2013-10-13 21:24:00,62.1,60.6,30.18,East,101,0.0,0.0,95,0.00,,,0.01,0,HR-IXPWINDi_r2_v1.2.,2013-10-14 01:24:00,
2013-10-13 21:29:00,62.1,60.6,30.19,East,101,0.0,0.0,95,0.00,,,0.01,0,HR-IXPWINDi_r2_v1.2.,2013-10-14 01:29:00,
2013-10-13 21:34:00,61.9,60.4,30.19,East,101,0.0,0.0,95,0.00,,,0.01,0,HR-IXPWINDi_r2_v1.2.,2013-10-14 01:34:00,
2013-10-13 21:39:00,61.9,60.4,30.19,East,101,0.0,0.0,95,0.00,,,0.01,0,HR-IXPWINDi_r2_v1.2.,2013-10-14 01:39:00,
2013-10-13 21:44:00,61.9,60.4,30.19,East,101,0.0,0.0,95,0.00,,,0.01,0,HR-IXPWINDi_r2_v1.2.,2013-10-14 01:44:00,
2013-10-13 21:49:00,61.9,60.4,30.19,East,101,0.0,0.0,95,0.00,,,0.01,0,HR-IXPWINDi_r2_v1.2.,2013-10-14 01:49:00,
2013-10-13 21:55:00,61.9,60.7,30.20,East,101,0.0,0.0,96,0.00,,,0.01,0,HR-IXPWINDi_r2_v1.2.,2013-10-14 01:55:00,
2013-10-13 22:00:00,61.9,60.7,30.20,East,101,0.0,0.0,96,0.00,,,0.01,0,HR-IXPWINDi_r2_v1.2.,2013-10-14 02:00:00,
2013-10-13 22:05:00,61.9,60.7,30.20,East,101,0.0,0.0,96,0.00,,,0.01,0,HR-IXPWINDi_r2_v1.2.,2013-10-14 02:05:00,
2013-10-13 22:10:00,61.9,60.7,30.20,East,101,0.0,0.0,96,0.00,,,0.01,0,HR-IXPWINDi_r2_v1.2.,2013-10-14 02:10:00,
2013-10-13 22:15:00,62.0,60.8,30.20,East,101,0.0,0.0,96,0.00,,,0.01,0,HR-IXPWINDi_r2_v1.2.,2013-10-14 02:15:00,
2013-10-13 22:20:00,62.0,60.8,30.20,East,101,0.0,0.0,96,0.00,,,0.01,0,HR-IXPWINDi_r2_v1.2.,2013-10-14 02:20:00,
2013-10-13 22:25:00,62.0,60.8,30.20,East,101,0.0,0.0,96,0.00,,,0.01,0,HR-IXPWINDi_r2_v1.2.,2013-10-14 02:25:00,
2013-10-13 22:31:00,61.8,60.6,30.20,East,101,0.0,0.0,96,0.00,,,0.01,0,HR-IXPWINDi_r2_v1.2.,2013-10-14 02:31:00,
2013-10-13 22:36:00,62.0,60.8,30.20,East,101,0.0,0.0,96,0.00,,,0.01,0,HR-IXPWINDi_r2_v1.2.,2013-10-14 02:36:00,
2013-10-13 22:41:00,62.0,60.8,30.20,East,101,0.0,0.0,96,0.00,,,0.01,0,HR-IXPWINDi_r2_v1.2.,2013-10-14 02:41:00,
2013-10-13 22:46:00,61.9,60.7,30.20,East,101,0.0,0.0,96,0.00,,,0.01,0,HR-IXPWINDi_r2_v1.2.,2013-10-14 02:46:00,
2013-10-13 22:51:00,61.9,60.7,30.20,East,101,0.0,0.0,96,0.00,,,0.01,0,HR-IXPWINDi_r2_v1.2.,2013-10-14 02:51:00,
2013-10-13 22:56:00,61.8,60.6,30.20,ENE,71,2.0,3.0,96,0.00,,,0.01,0,HR-IXPWINDi_r2_v1.2.,2013-10-14 02:56:00,
2013-10-13 23:01:00,61.9,60.7,30.20,ENE,71,0.0,3.0,96,0.00,,,0.01,0,HR-IXPWINDi_r2_v1.2.,2013-10-14 03:01:00,
2013-10-13 23:07:00,62.0,60.8,30.20,ENE,71,0.0,2.0,96,0.00,,,0.01,0,HR-IXPWINDi_r2_v1.2.,2013-10-14 03:07:00,
2013-10-13 23:12:00,62.1,60.9,30.20,ENE,71,0.0,0.0,96,0.00,,,0.01,0,HR-IXPWINDi_r2_v1.2.,2013-10-14 03:12:00,
2013-10-13 23:17:00,61.8,60.6,30.20,ENE,71,0.0,0.0,96,0.00,,,0.01,0,HR-IXPWINDi_r2_v1.2.,2013-10-14 03:17:00,
2013-10-13 23:22:00,61.9,60.7,30.20,ENE,71,0.0,0.0,96,0.00,,,0.01,0,HR-IXPWINDi_r2_v1.2.,2013-10-14 03:22:00,
2013-10-13 23:28:00,61.9,60.7,30.20,ENE,71,0.0,0.0,96,0.00,,,0.01,0,HR-IXPWINDi_r2_v1.2.,2013-10-14 03:28:00,
2013-10-13 23:33:00,61.8,60.6,30.20,ENE,71,0.0,0.0,96,0.00,,,0.01,0,HR-IXPWINDi_r2_v1.2.,2013-10-14 03:33:00,
2013-10-13 23:38:00,61.9,60.7,30.20,ENE,71,0.0,0.0,96,0.00,,,0.01,0,HR-IXPWINDi_r2_v1.2.,2013-10-14 03:38:00,
2013-10-13 23:43:00,61.8,60.6,30.20,ENE,71,0.0,0.0,96,0.00,,,0.01,0,HR-IXPWINDi_r2_v1.2.,2013-10-14 03:43:00,
2013-10-13 23:48:00,61.6,60.4,30.20,ENE,71,0.0,0.0,96,0.00,,,0.01,0,HR-IXPWINDi_r2_v1.2.,2013-10-14 03:48:00,
2013-10-13 23:53:00,61.7,60.5,30.19,ENE,71,0.0,0.0,96,0.00,,,0.01,0,HR-IXPWINDi_r2_v1.2.,2013-10-14 03:53:00,
2013-10-13 23:58:00,61.7,60.5,30.19,ENE,71,0.0,0.0,96,0.00,,,0.00,0,HR-IXPWINDi_r2_v1.2.,2013-10-14 03:58:00,